Time;durP1;ratioP1;P1;durP2;ratioP2;P2;SDS_P1;SDS_P2;PMS_P1;PMS_P2;Temp;Humidity;BMP_temperature;BMP_pressure;BME280_temperature;BME280_humidity;BME280_pressure;Samples;Min_cycle;Max_cycle;Signal;HPM_P1;HPM_P2
2022/02/06 00:01:17;;;;;;;42.33;31.30;;;;;;;-1.13;94.72;96745.06;5052775;28;20040;-62
2022/02/06 00:03:42;;;;;;;47.05;30.75;;;;;;;-1.20;94.74;96734.91;5052167;28;20033;-62
2022/02/06 00:06:08;;;;;;;41.58;29.35;;;;;;;-1.22;94.64;96734.09;5052145;28;20037;-62
2022/02/06 00:08:33;;;;;;;43.63;30.52;;;;;;;-1.26;95.04;96734.25;5050377;28;20416;-62
2022/02/06 00:10:59;;;;;;;39.78;29.40;;;;;;;-1.34;95.94;96742.22;5048136;28;20025;-62
2022/02/06 00:13:24;;;;;;;41.17;26.55;;;;;;;-1.40;96.11;96729.47;5054098;28;20029;-62
2022/02/06 00:15:50;;;;;;;39.78;27.08;;;;;;;-1.45;96.01;96733.00;5048606;28;20033;-62
2022/02/06 00:18:15;;;;;;;40.92;27.65;;;;;;;-1.50;96.37;96737.47;5054044;28;20031;-62
2022/02/06 00:20:50;;;;;;;45.38;28.88;;;;;;;-1.47;96.07;96729.63;5050690;28;20049;-62
2022/02/06 00:23:18;;;;;;;37.47;24.30;;;;;;;-1.39;96.15;96728.56;5054515;28;20119;-62
2022/02/06 00:38:03;;;;;;;36.60;23.15;;;;;;;-1.56;96.26;96724.72;5055162;28;20063;-62
2022/02/06 00:41:22;;;;;;;41.63;25.20;;;;;;;-1.59;95.68;96735.13;5053347;28;20589;-62
2022/02/06 00:43:48;;;;;;;34.33;23.75;;;;;;;-1.64;95.58;96742.16;5053553;28;20116;-62
2022/02/06 00:46:16;;;;;;;43.50;28.88;;;;;;;-1.61;95.81;96731.75;5050120;28;20528;-62
2022/02/06 00:48:45;;;;;;;44.20;30.15;;;;;;;-1.59;96.30;96745.47;5061043;28;20056;-61
2022/02/06 00:51:16;;;;;;;52.42;33.90;;;;;;;-1.53;96.21;96745.28;5065476;28;20021;-62
2022/02/06 00:53:41;;;;;;;42.55;29.23;;;;;;;-1.55;96.69;96744.50;5050929;28;20060;-62
2022/02/06 00:56:08;;;;;;;41.45;24.35;;;;;;;-1.56;97.51;96754.84;5049590;28;20527;-62
2022/02/06 00:58:34;;;;;;;34.67;22.83;;;;;;;-1.55;97.98;96757.41;5053430;28;20147;-62
2022/02/06 01:01:00;;;;;;;34.45;21.63;;;;;;;-1.51;97.78;96753.84;5049865;28;20151;-62
2022/02/06 01:03:26;;;;;;;37.33;22.05;;;;;;;-1.43;97.43;96760.56;5050714;28;20032;-62
2022/02/06 01:05:51;;;;;;;33.60;20.10;;;;;;;-1.34;96.67;96755.13;5038381;28;20028;-62
2022/02/06 01:08:17;;;;;;;24.80;18.38;;;;;;;-1.24;95.59;96756.53;5059471;28;20029;-62
2022/02/06 01:10:42;;;;;;;25.42;17.52;;;;;;;-1.21;95.45;96763.38;5062664;28;20385;-62
2022/02/06 01:13:20;;;;;;;22.67;16.48;;;;;;;-1.16;96.07;96770.13;5059290;28;20091;-61
2022/02/06 01:16:31;;;;;;;18.73;15.40;;;;;;;-1.10;95.26;96768.25;5059179;28;20045;-62
2022/02/06 01:18:40;;;;;;;18.33;14.13;;;;;;;-1.08;95.13;96759.56;5050954;28;20025;-62
2022/02/06 01:21:21;;;;;;;23.85;15.50;;;;;;;-1.09;95.58;96754.44;5050775;28;20139;-62
2022/02/06 01:26:44;;;;;;;17.08;12.50;;;;;;;-1.14;97.08;96757.13;5051729;28;20048;-62
2022/02/06 01:31:57;;;;;;;25.73;14.52;;;;;;;-1.16;96.39;96762.38;5058028;28;20411;-61
2022/02/06 01:34:30;;;;;;;23.65;16.80;;;;;;;-1.16;95.85;96764.09;5056887;28;20624;-62
2022/02/06 01:42:16;;;;;;;24.70;15.20;;;;;;;-1.26;97.14;96752.34;5059690;28;20043;-62
2022/02/06 02:00:58;;;;;;;28.95;15.85;;;;;;;-1.41;96.36;96740.69;5060539;28;20037;-62
2022/02/06 02:11:48;;;;;;;16.08;11.75;;;;;;;-1.65;97.62;96727.56;5061243;28;20108;-62
2022/02/06 02:27:42;;;;;;;11.25;8.90;;;;;;;-1.74;96.90;96726.91;5064475;28;20025;-62
2022/02/06 02:46:35;;;;;;;8.00;7.20;;;;;;;-1.85;97.85;96712.59;5063965;28;20039;-62
2022/02/06 02:49:01;;;;;;;10.32;7.43;;;;;;;-1.81;97.86;96717.63;5060103;28;20065;-61
2022/02/06 02:51:32;;;;;;;10.05;7.18;;;;;;;-1.79;97.27;96715.84;5070689;28;20037;-62
2022/02/06 02:54:02;;;;;;;7.60;6.88;;;;;;;-1.86;97.14;96698.84;5065338;28;20072;-62
2022/02/06 02:59:09;;;;;;;7.88;6.82;;;;;;;-1.97;97.73;96708.59;5063844;28;20120;-61
2022/02/06 03:01:49;;;;;;;6.78;6.07;;;;;;;-2.06;97.74;96697.63;5066485;28;20492;-61
2022/02/06 03:04:14;;;;;;;6.75;6.05;;;;;;;-2.05;97.37;96704.50;5053055;28;20036;-61
2022/02/06 03:06:40;;;;;;;8.02;6.55;;;;;;;-2.06;97.40;96705.38;5061577;28;20041;-61
2022/02/06 03:09:06;;;;;;;6.90;6.22;;;;;;;-2.09;97.57;96702.88;5059073;28;20052;-62
2022/02/06 03:11:31;;;;;;;9.23;6.20;;;;;;;-2.14;97.61;96701.28;5062636;28;20416;-62
2022/02/06 03:14:08;;;;;;;6.95;6.25;;;;;;;-2.19;97.29;96698.81;5062505;28;20083;-61
2022/02/06 03:16:43;;;;;;;6.85;6.05;;;;;;;-2.24;98.25;96691.19;5061965;28;20554;-61
2022/02/06 03:19:12;;;;;;;11.63;7.03;;;;;;;-2.25;97.94;96698.97;5059028;28;20040;-61
2022/02/06 03:21:39;;;;;;;8.55;6.78;;;;;;;-2.23;98.26;96692.06;5055575;28;20044;-62
2022/02/06 03:24:18;;;;;;;7.05;6.25;;;;;;;-2.17;97.78;96699.63;5054989;28;20056;-60
2022/02/06 03:26:45;;;;;;;6.80;6.05;;;;;;;-2.14;97.35;96698.72;5053602;28;20029;-60
2022/02/06 03:29:11;;;;;;;9.25;7.22;;;;;;;-2.12;97.49;96691.78;5035537;28;20033;-60
2022/02/06 03:31:37;;;;;;;8.75;6.30;;;;;;;-2.06;97.07;96691.59;5045798;28;20125;-60
2022/02/06 03:34:03;;;;;;;8.40;7.40;;;;;;;-1.97;97.51;96686.22;5052593;28;20029;-60
2022/02/06 03:36:28;;;;;;;8.63;6.05;;;;;;;-2.06;98.25;96683.88;5053274;28;20484;-60
2022/02/06 03:38:54;;;;;;;14.13;7.57;;;;;;;-2.08;98.55;96688.22;5053446;28;20043;-60
2022/02/06 03:41:21;;;;;;;8.73;7.43;;;;;;;-2.07;98.76;96684.75;5053094;28;20485;-60
2022/02/06 03:43:53;;;;;;;9.88;7.57;;;;;;;-2.08;99.24;96681.34;5053367;28;20051;-60
2022/02/06 03:46:33;;;;;;;11.38;7.10;;;;;;;-2.09;98.76;96684.81;5053099;28;20025;-60
2022/02/06 03:51:35;;;;;;;8.68;6.93;;;;;;;-2.10;98.73;96672.81;5052944;28;20033;-60
2022/02/06 03:54:02;;;;;;;8.13;7.32;;;;;;;-2.12;99.16;96674.53;5053071;28;20546;-59
2022/02/06 03:56:29;;;;;;;12.70;8.15;;;;;;;-2.14;99.40;96668.56;5052816;28;20045;-60
2022/02/06 03:58:56;;;;;;;8.23;7.45;;;;;;;-2.18;99.61;96673.00;5046569;28;20072;-60
2022/02/06 04:01:22;;;;;;;14.75;8.02;;;;;;;-2.19;99.38;96676.47;5033066;28;20068;-60
2022/02/06 04:03:47;;;;;;;9.60;8.07;;;;;;;-2.21;99.25;96673.06;5033012;28;20069;-60
2022/02/06 04:06:13;;;;;;;7.53;6.82;;;;;;;-2.26;99.01;96668.91;5045624;28;20041;-60
2022/02/06 04:08:40;;;;;;;9.30;7.82;;;;;;;-2.29;99.08;96669.00;5052872;28;20033;-60
2022/02/06 04:11:10;;;;;;;11.30;7.82;;;;;;;-2.31;99.39;96677.63;5051783;28;20036;-60
2022/02/06 04:13:41;;;;;;;11.38;7.43;;;;;;;-2.34;98.72;96680.25;5052143;28;20036;-60
2022/02/06 04:16:13;;;;;;;10.10;6.80;;;;;;;-2.41;98.94;96685.63;5052359;28;20099;-60
2022/02/06 04:18:51;;;;;;;8.50;7.00;;;;;;;-2.41;99.16;96688.22;5049806;28;20052;-60
2022/02/06 04:21:16;;;;;;;8.80;6.55;;;;;;;-2.36;98.77;96692.34;5051685;28;20056;-60
2022/02/06 04:23:42;;;;;;;6.38;5.75;;;;;;;-2.36;98.82;96691.50;5051651;28;20119;-60
2022/02/06 04:26:07;;;;;;;9.27;6.78;;;;;;;-2.37;98.53;96697.56;5052011;28;20094;-60
2022/02/06 04:28:34;;;;;;;7.07;6.25;;;;;;;-2.37;98.57;96693.22;5051920;28;20037;-60
2022/02/06 04:30:59;;;;;;;7.10;6.18;;;;;;;-2.35;98.84;96694.03;5033758;28;20480;-60
2022/02/06 04:33:24;;;;;;;7.22;6.63;;;;;;;-2.37;99.81;96690.66;5051681;28;20119;-60
2022/02/06 04:35:53;;;;;;;9.90;6.70;;;;;;;-2.37;99.11;96689.81;5051827;28;20040;-60
2022/02/06 05:26:33;;;;;;;5.68;5.15;;;;;;;-2.74;99.13;96697.53;5051055;28;20047;-60
2022/02/06 05:29:06;;;;;;;5.18;4.88;;;;;;;-2.76;99.65;96699.31;5050802;28;20467;-60
2022/02/06 05:31:58;;;;;;;5.90;5.40;;;;;;;-2.86;99.38;96713.31;5050711;28;20115;-59
2022/02/06 05:34:24;;;;;;;5.90;5.35;;;;;;;-2.95;98.88;96724.66;5050919;28;20060;-60
2022/02/06 05:36:49;;;;;;;5.50;5.00;;;;;;;-2.98;99.30;96729.03;5049808;28;20453;-60
2022/02/06 05:39:14;;;;;;;6.03;5.43;;;;;;;-3.04;99.30;96737.75;5030627;28;20037;-60
2022/02/06 05:41:40;;;;;;;6.75;5.88;;;;;;;-3.06;100.00;96745.50;5030750;28;20048;-60
2022/02/06 05:44:06;;;;;;;6.38;5.80;;;;;;;-3.07;100.00;96750.69;5012543;28;20128;-60
2022/02/06 05:46:32;;;;;;;8.88;5.60;;;;;;;-3.05;100.00;96742.06;5046583;28;20033;-59
2022/02/06 05:48:57;;;;;;;6.63;6.03;;;;;;;-3.04;100.00;96741.19;5050610;28;20033;-59
2022/02/06 05:51:23;;;;;;;8.13;5.45;;;;;;;-3.02;99.68;96743.69;5050695;28;20041;-59
2022/02/06 05:53:48;;;;;;;5.47;5.07;;;;;;;-3.06;99.93;96749.81;5050708;28;20033;-60
2022/02/06 05:56:17;;;;;;;6.47;5.70;;;;;;;-3.09;99.08;96739.56;5050480;28;20124;-59
2022/02/06 05:58:43;;;;;;;5.43;4.93;;;;;;;-3.15;100.00;96742.28;5050621;28;20126;-60
2022/02/06 06:01:09;;;;;;;6.55;5.75;;;;;;;-3.16;100.00;96746.56;5050395;28;20116;-59
2022/02/06 06:03:34;;;;;;;7.07;6.40;;;;;;;-3.16;99.73;96751.72;5034712;28;20475;-60
2022/02/06 06:06:00;;;;;;;6.57;5.97;;;;;;;-3.14;100.00;96744.81;5031054;28;20481;-60
2022/02/06 06:08:25;;;;;;;8.95;7.35;;;;;;;-3.15;100.00;96757.75;5039446;28;20045;-60
2022/02/06 06:10:51;;;;;;;8.60;7.60;;;;;;;-3.19;99.73;96749.22;5051090;28;20132;-60
2022/02/06 06:13:17;;;;;;;7.57;6.53;;;;;;;-3.19;99.98;96739.78;5050175;28;20057;-60
2022/02/06 06:15:42;;;;;;;7.40;6.28;;;;;;;-3.17;100.00;96734.56;5050894;28;20033;-60
2022/02/06 06:18:09;;;;;;;6.82;6.22;;;;;;;-3.17;100.00;96729.41;5049044;28;20021;-60
2022/02/06 06:20:36;;;;;;;6.55;5.78;;;;;;;-3.20;100.00;96730.34;5050483;28;20037;-60
2022/02/06 06:23:02;;;;;;;7.20;6.60;;;;;;;-3.15;100.00;96740.53;5050826;28;20484;-60
2022/02/06 06:25:34;;;;;;;6.63;6.07;;;;;;;-3.16;100.00;96731.13;5050749;28;20033;-60
2022/02/06 06:27:59;;;;;;;7.35;6.68;;;;;;;-3.13;100.00;96723.31;5050510;28;20029;-60
2022/02/06 06:30:27;;;;;;;9.52;7.43;;;;;;;-3.10;100.00;96719.84;5050447;28;20358;-60
2022/02/06 06:32:52;;;;;;;8.93;7.53;;;;;;;-3.12;100.00;96706.16;5050779;28;20037;-60
2022/02/06 06:35:18;;;;;;;9.10;7.53;;;;;;;-3.12;100.00;96691.53;5050689;28;20041;-60
2022/02/06 06:37:44;;;;;;;8.85;6.90;;;;;;;-3.14;100.00;96688.13;5050650;28;20056;-60
2022/02/06 06:40:09;;;;;;;9.38;7.65;;;;;;;-3.14;100.00;96687.31;5050517;28;20028;-60
2022/02/06 06:42:35;;;;;;;9.18;8.30;;;;;;;-3.12;100.00;96695.84;5050650;28;20087;-60
2022/02/06 06:45:00;;;;;;;11.55;9.63;;;;;;;-3.06;100.00;96700.84;5050665;28;20095;-59
2022/02/06 06:47:26;;;;;;;9.77;7.80;;;;;;;-3.00;100.00;96700.72;5050559;28;20037;-60
2022/02/06 06:49:51;;;;;;;7.75;7.00;;;;;;;-2.90;100.00;96699.63;5050541;28;20600;-60
2022/02/06 06:52:16;;;;;;;7.72;6.97;;;;;;;-2.78;100.00;96700.22;5047353;28;20034;-60
2022/02/06 06:54:46;;;;;;;9.88;8.77;;;;;;;-2.82;100.00;96698.59;5051166;28;20131;-60
2022/02/06 06:57:19;;;;;;;10.57;9.57;;;;;;;-2.87;100.00;96691.00;5054132;28;20051;-60
2022/02/06 07:02:30;;;;;;;14.95;12.52;;;;;;;-2.90;100.00;96686.75;5012969;28;20048;-60
2022/02/06 07:05:03;;;;;;;14.70;12.27;;;;;;;-2.84;100.00;96700.38;5054161;28;20045;-60
2022/02/06 07:07:30;;;;;;;8.77;7.97;;;;;;;-2.90;100.00;96706.50;5054124;28;20025;-59
2022/02/06 07:09:56;;;;;;;8.60;7.80;;;;;;;-2.88;100.00;96704.75;5053596;28;20033;-60
2022/02/06 07:12:22;;;;;;;8.10;7.30;;;;;;;-2.68;100.00;96706.88;5053858;28;20040;-60
2022/02/06 07:14:48;;;;;;;8.32;7.63;;;;;;;-2.60;100.00;96697.22;5053690;28;20546;-60
2022/02/06 07:17:16;;;;;;;10.60;8.90;;;;;;;-2.67;100.00;96706.00;5049499;28;20029;-60
2022/02/06 07:19:42;;;;;;;10.95;8.80;;;;;;;-2.70;100.00;96703.50;5033863;28;20115;-60
2022/02/06 07:22:11;;;;;;;9.95;8.95;;;;;;;-2.71;100.00;96704.38;5039386;28;20045;-60
2022/02/06 07:24:37;;;;;;;8.93;8.00;;;;;;;-2.69;100.00;96700.03;5053557;28;20056;-59
2022/02/06 07:27:14;;;;;;;7.13;6.47;;;;;;;-2.67;100.00;96703.41;5053619;28;20103;-60
2022/02/06 07:29:39;;;;;;;10.23;9.25;;;;;;;-2.63;100.00;96714.50;5053493;28;20040;-60
2022/02/06 07:32:05;;;;;;;9.43;8.57;;;;;;;-2.56;100.00;96707.47;5053602;28;20025;-59
2022/02/06 07:34:30;;;;;;;10.27;9.30;;;;;;;-2.51;100.00;96706.47;5053555;28;20060;-60
2022/02/06 07:36:56;;;;;;;10.85;9.77;;;;;;;-2.54;100.00;96706.53;5053363;28;20112;-59
2022/02/06 07:39:21;;;;;;;11.32;10.23;;;;;;;-2.52;100.00;96698.78;5053305;28;20029;-60
2022/02/06 07:41:46;;;;;;;13.38;11.95;;;;;;;-2.45;100.00;96695.16;5052717;28;20094;-59
2022/02/06 07:44:12;;;;;;;14.80;13.23;;;;;;;-2.37;100.00;96682.91;5033392;28;20400;-59
2022/02/06 07:46:43;;;;;;;11.95;10.85;;;;;;;-2.29;100.00;96687.88;5033912;28;20045;-59
2022/02/06 07:49:09;;;;;;;10.85;9.75;;;;;;;-2.25;100.00;96694.66;5033345;28;20052;-59
2022/02/06 07:51:35;;;;;;;10.27;9.32;;;;;;;-2.25;100.00;96694.66;5033277;28;20046;-59
2022/02/06 07:54:01;;;;;;;15.05;11.20;;;;;;;-2.24;100.00;96680.03;5033211;28;20060;-59
2022/02/06 07:56:27;;;;;;;17.83;15.95;;;;;;;-2.19;100.00;96679.03;5039473;28;20509;-59
2022/02/06 07:58:52;;;;;;;13.45;11.88;;;;;;;-2.11;100.00;96685.72;5052420;28;20051;-60
2022/02/06 08:01:17;;;;;;;13.25;11.60;;;;;;;-2.07;100.00;96695.06;5052895;28;20041;-59
2022/02/06 08:03:43;;;;;;;16.92;14.23;;;;;;;-2.04;100.00;96682.94;5052926;28;20183;-60
2022/02/06 08:06:10;;;;;;;20.85;17.50;;;;;;;-1.98;100.00;96679.38;5051841;28;20033;-58
2022/02/06 08:08:35;;;;;;;22.75;16.67;;;;;;;-1.85;100.00;96697.97;5050964;28;20033;-58
2022/02/06 08:11:03;;;;;;;23.60;18.33;;;;;;;-1.77;100.00;96693.41;5046843;28;20099;-59
2022/02/06 08:13:40;;;;;;;21.63;17.92;;;;;;;-1.57;100.00;96697.19;5050931;28;20493;-58
2022/02/06 08:16:06;;;;;;;25.83;18.92;;;;;;;-1.54;100.00;96691.94;5048754;28;20470;-59
2022/02/06 08:18:31;;;;;;;20.73;18.52;;;;;;;-1.52;100.00;96692.75;5050587;28;20045;-59
2022/02/06 08:20:57;;;;;;;23.77;21.17;;;;;;;-1.46;100.00;96696.91;5050881;28;20040;-60
2022/02/06 08:23:22;;;;;;;21.60;19.23;;;;;;;-1.46;100.00;96689.16;5049376;28;20155;-62
2022/02/06 08:25:47;;;;;;;25.90;19.73;;;;;;;-1.49;99.99;96697.00;5050090;28;20039;-60
2022/02/06 08:28:13;;;;;;;21.23;18.65;;;;;;;-1.57;100.00;96704.94;5050754;28;20404;-59
2022/02/06 08:30:39;;;;;;;23.02;18.38;;;;;;;-1.68;100.00;96709.53;5048042;28;20045;-59
2022/02/06 08:33:05;;;;;;;25.98;23.17;;;;;;;-1.71;100.00;96715.66;5050683;28;20399;-57
2022/02/06 08:35:31;;;;;;;23.05;20.25;;;;;;;-1.72;100.00;96708.81;5046943;28;20036;-55
2022/02/06 08:37:57;;;;;;;25.95;20.58;;;;;;;-1.72;100.00;96713.97;5050961;28;20116;-55
2022/02/06 08:40:22;;;;;;;22.58;18.83;;;;;;;-1.73;100.00;96715.69;5048802;28;20025;-58
2022/02/06 08:42:48;;;;;;;21.48;19.13;;;;;;;-1.73;100.00;96723.44;5050932;28;20037;-57
2022/02/06 08:45:15;;;;;;;34.25;26.23;;;;;;;-1.73;100.00;96732.94;5051699;28;20493;-56
2022/02/06 08:47:46;;;;;;;37.65;27.58;;;;;;;-1.76;100.00;96727.84;5050614;28;20443;-55
2022/02/06 08:50:12;;;;;;;81.22;60.90;;;;;;;-1.69;100.00;96724.22;5047550;28;20033;-55
2022/02/06 08:52:37;;;;;;;84.68;62.08;;;;;;;-1.48;100.00;96729.69;5048395;28;20098;-54
2022/02/06 08:55:06;;;;;;;52.28;42.08;;;;;;;-1.11;100.00;96738.13;5050872;28;20091;-59
2022/02/06 08:57:32;;;;;;;57.40;44.35;;;;;;;-0.58;100.00;96740.00;5050038;28;20036;-59
2022/02/06 08:59:58;;;;;;;41.70;32.15;;;;;;;-0.07;99.66;96737.50;5051055;28;20049;-58
2022/02/06 09:02:24;;;;;;;29.73;25.55;;;;;;;0.48;96.23;96732.19;5050947;28;20041;-58
2022/02/06 09:04:49;;;;;;;28.83;24.92;;;;;;;0.73;93.63;96728.72;5048294;28;20108;-58
2022/02/06 09:07:16;;;;;;;32.90;25.33;;;;;;;0.89;91.72;96735.94;5051116;28;20171;-58
2022/02/06 09:09:47;;;;;;;24.95;21.60;;;;;;;1.08;91.75;96734.34;5050975;28;20353;-58
2022/02/06 09:12:13;;;;;;;25.70;19.25;;;;;;;1.38;91.39;96728.88;5051310;28;20119;-56
2022/02/06 09:14:38;;;;;;;38.55;30.63;;;;;;;1.53;89.99;96729.19;5050551;28;20228;-53
2022/02/06 09:17:04;;;;;;;29.27;23.63;;;;;;;1.78;91.90;96725.63;5050724;28;20037;-54
2022/02/06 09:19:31;;;;;;;15.30;12.68;;;;;;;1.90;91.14;96732.91;5051104;28;20124;-56
2022/02/06 09:21:59;;;;;;;14.57;9.73;;;;;;;1.99;85.97;96735.13;5050282;28;20041;-57
2022/02/06 09:24:24;;;;;;;34.95;21.65;;;;;;;2.26;87.19;96723.66;5047691;28;20033;-55
2022/02/06 09:26:49;;;;;;;19.23;13.73;;;;;;;2.51;84.83;96718.22;5050749;28;20043;-53
2022/02/06 09:29:16;;;;;;;11.05;8.90;;;;;;;2.72;82.22;96718.19;5050304;28;20113;-55
2022/02/06 09:31:42;;;;;;;5.28;4.47;;;;;;;2.91;82.53;96710.44;5048879;28;20112;-57
2022/02/06 09:36:34;;;;;;;8.73;7.03;;;;;;;3.03;79.28;96715.97;5050586;28;20091;-57
2022/02/06 09:39:00;;;;;;;10.68;7.80;;;;;;;3.24;77.90;96714.16;5050294;28;20029;-55
2022/02/06 09:41:25;;;;;;;10.57;7.32;;;;;;;3.60;75.59;96699.47;5050417;28;20485;-56
2022/02/06 09:43:54;;;;;;;8.95;6.75;;;;;;;3.70;75.42;96704.16;5049778;28;20480;-53
2022/02/06 09:46:20;;;;;;;9.55;8.23;;;;;;;3.79;76.39;96720.22;5046612;28;20033;-54
2022/02/06 09:48:46;;;;;;;10.52;9.07;;;;;;;4.16;73.80;96721.03;5048703;28;20033;-53
2022/02/06 09:51:12;;;;;;;16.23;12.02;;;;;;;4.23;74.80;96716.38;5047899;28;20068;-55
2022/02/06 09:53:38;;;;;;;9.30;6.85;;;;;;;4.50;74.27;96711.47;5048309;28;20102;-53
2022/02/06 09:56:11;;;;;;;7.78;5.97;;;;;;;4.58;72.32;96704.13;5049300;28;20577;-52
2022/02/06 10:01:06;;;;;;;7.75;6.47;;;;;;;4.63;71.52;96696.03;5047372;28;20067;-54
2022/02/06 10:03:42;;;;;;;8.00;5.97;;;;;;;4.85;70.57;96695.75;5030706;28;20056;-55
2022/02/06 10:06:12;;;;;;;10.18;7.55;;;;;;;4.76;70.08;96701.47;5048688;28;20025;-54
2022/02/06 10:08:40;;;;;;;8.50;7.57;;;;;;;5.24;68.69;96700.69;5048315;28;20037;-51
2022/02/06 10:11:10;;;;;;;13.32;9.10;;;;;;;5.01;71.22;96703.59;5047244;28;20071;-51
2022/02/06 10:13:37;;;;;;;6.45;5.38;;;;;;;4.99;70.00;96702.84;5049889;28;20079;-54
2022/02/06 10:16:04;;;;;;;7.60;6.00;;;;;;;5.06;69.91;96700.75;5048810;28;20040;-54
2022/02/06 10:18:31;;;;;;;10.23;6.57;;;;;;;5.26;69.16;96698.81;5049224;28;20044;-54
2022/02/06 10:20:56;;;;;;;9.07;5.97;;;;;;;5.42;69.43;96697.06;5049156;28;20048;-55
2022/02/06 10:26:08;;;;;;;7.38;5.72;;;;;;;5.73;67.51;96686.63;5049981;28;20078;-55
2022/02/06 10:28:43;;;;;;;9.27;6.38;;;;;;;5.95;68.00;96685.38;5050498;28;20033;-56
2022/02/06 10:31:09;;;;;;;7.95;5.60;;;;;;;5.91;65.26;96689.97;5051852;28;20069;-55
2022/02/06 10:33:46;;;;;;;8.15;5.57;;;;;;;6.05;67.11;96676.13;5053784;28;20120;-54
2022/02/06 10:36:14;;;;;;;5.93;5.22;;;;;;;6.28;66.42;96679.16;5031727;28;20082;-55
2022/02/06 10:38:40;;;;;;;8.15;5.30;;;;;;;6.14;65.53;96667.72;5053975;28;20508;-53
2022/02/06 10:41:06;;;;;;;7.97;5.07;;;;;;;6.39;66.42;96668.88;5053565;28;20032;-51
2022/02/06 10:43:33;;;;;;;6.10;5.50;;;;;;;6.63;64.54;96668.38;5053567;28;20120;-51
2022/02/06 10:46:10;;;;;;;5.20;4.70;;;;;;;6.83;61.70;96651.44;5053123;28;20500;-55
2022/02/06 10:48:44;;;;;;;7.47;5.15;;;;;;;6.98;61.35;96638.31;5053146;28;20140;-53
2022/02/06 10:51:09;;;;;;;6.57;4.70;;;;;;;7.02;61.95;96629.34;5048233;28;20115;-56
2022/02/06 10:53:35;;;;;;;5.72;5.07;;;;;;;7.21;59.78;96625.56;5053666;28;20128;-53
2022/02/06 10:56:04;;;;;;;7.10;4.90;;;;;;;7.51;59.91;96620.09;5050777;28;20076;-53
2022/02/06 10:58:32;;;;;;;5.15;4.65;;;;;;;7.57;58.18;96619.72;5053477;28;20041;-54
2022/02/06 11:00:58;;;;;;;5.38;4.10;;;;;;;7.29;59.41;96605.78;5052096;28;20041;-51
2022/02/06 11:03:31;;;;;;;4.82;3.85;;;;;;;7.14;58.83;96601.53;5053327;28;20455;-55
2022/02/06 11:06:07;;;;;;;7.40;5.30;;;;;;;7.43;60.39;96593.56;5053169;28;20045;-50
2022/02/06 11:08:34;;;;;;;5.00;4.13;;;;;;;7.14;58.23;96593.69;5053220;28;20048;-55
2022/02/06 11:11:06;;;;;;;4.03;3.60;;;;;;;6.88;58.05;96591.75;5053021;28;20068;-54
2022/02/06 11:13:32;;;;;;;7.35;4.80;;;;;;;6.57;60.86;96588.47;5047579;28;20040;-52
2022/02/06 11:16:01;;;;;;;6.55;4.53;;;;;;;7.12;59.72;96596.38;5051231;28;20103;-51
2022/02/06 11:18:33;;;;;;;5.32;4.90;;;;;;;7.21;58.60;96602.00;5049983;28;20037;-53
2022/02/06 11:21:09;;;;;;;7.20;5.18;;;;;;;7.54;58.11;96598.94;5050306;28;20067;-54
2022/02/06 11:23:55;;;;;;;6.95;5.63;;;;;;;7.94;56.51;96591.97;5051317;28;20029;-51
2022/02/06 11:26:23;;;;;;;8.75;6.35;;;;;;;8.16;56.50;96589.56;5051010;28;20037;-50
2022/02/06 11:28:51;;;;;;;8.60;6.03;;;;;;;7.97;55.92;96589.19;5051976;28;20516;-54
2022/02/06 11:31:17;;;;;;;9.02;6.15;;;;;;;7.89;56.30;96576.56;5051092;28;20423;-53
2022/02/06 11:33:44;;;;;;;5.50;5.00;;;;;;;7.78;56.21;96568.56;5052298;28;20029;-55
2022/02/06 11:42:56;;;;;;;5.57;5.10;;;;;;;7.10;58.42;96569.44;5050940;28;20033;-53
2022/02/06 11:44:43;;;;;;;8.40;5.15;;;;;;;7.39;58.87;96568.50;5048887;28;20075;-59
2022/02/06 11:47:11;;;;;;;7.15;5.60;;;;;;;7.77;55.97;96548.56;5050212;28;20087;-57
2022/02/06 11:49:39;;;;;;;8.23;5.47;;;;;;;7.04;60.19;96548.91;5052236;28;20127;-57
2022/02/06 11:52:05;;;;;;;7.82;6.20;;;;;;;6.84;60.75;96558.88;5046770;28;20032;-56
2022/02/06 11:54:33;;;;;;;7.40;5.28;;;;;;;6.95;60.89;96566.03;5050879;28;20102;-55
2022/02/06 11:57:17;;;;;;;5.97;4.90;;;;;;;6.67;59.06;96548.63;5050591;28;20045;-53
2022/02/06 12:00:02;;;;;;;8.30;6.05;;;;;;;6.71;59.64;96544.88;5049662;28;20040;-52
2022/02/06 12:02:31;;;;;;;6.50;5.85;;;;;;;6.80;60.78;96544.31;5050076;28;20127;-53
2022/02/06 12:05:17;;;;;;;7.03;5.75;;;;;;;7.66;57.03;96547.50;5050362;28;20041;-54
2022/02/06 12:07:52;;;;;;;6.30;5.28;;;;;;;7.50;56.38;96533.75;5052054;28;20040;-51
2022/02/06 12:10:20;;;;;;;6.97;5.78;;;;;;;7.66;56.95;96539.63;5050800;28;20066;-57
2022/02/06 12:12:49;;;;;;;6.22;5.28;;;;;;;7.79;57.97;96550.13;5051342;28;20542;-53
2022/02/06 12:15:19;;;;;;;6.35;5.47;;;;;;;7.93;56.57;96556.22;5050572;28;20037;-58
2022/02/06 12:18:12;;;;;;;5.25;4.75;;;;;;;7.80;56.42;96543.94;5050521;28;20488;-58
2022/02/06 12:20:49;;;;;;;4.75;4.35;;;;;;;7.82;57.75;96552.53;5031806;28;20159;-55
2022/02/06 12:23:39;;;;;;;8.57;5.40;;;;;;;8.07;56.46;96552.66;5049365;28;20033;-55
2022/02/06 12:29:02;;;;;;;7.75;4.82;;;;;;;8.06;55.52;96550.97;5043740;28;20108;-54
2022/02/06 12:31:29;;;;;;;7.03;4.43;;;;;;;7.76;55.19;96549.50;5049819;28;20048;-53
2022/02/06 12:39:23;;;;;;;5.65;4.68;;;;;;;7.37;56.18;96558.13;5046615;28;20124;-54
2022/02/06 12:41:49;;;;;;;6.13;4.70;;;;;;;7.12;57.63;96561.50;5047994;28;20067;-53
2022/02/06 12:44:16;;;;;;;8.80;4.78;;;;;;;7.27;58.31;96550.03;5049479;28;20041;-55
2022/02/06 12:46:44;;;;;;;5.25;4.22;;;;;;;7.58;56.99;96545.38;5048382;28;20125;-53
2022/02/06 12:49:10;;;;;;;9.32;5.03;;;;;;;7.25;58.67;96549.28;5051077;28;20507;-54
2022/02/06 12:51:36;;;;;;;4.97;4.20;;;;;;;7.45;58.29;96550.59;5050809;28;20045;-51
2022/02/06 12:54:08;;;;;;;5.70;3.85;;;;;;;7.81;55.75;96552.63;5049013;28;20447;-51
2022/02/06 12:56:34;;;;;;;5.53;4.30;;;;;;;7.65;55.55;96548.44;5050298;28;20685;-52
2022/02/06 12:59:01;;;;;;;3.97;3.63;;;;;;;7.58;55.01;96549.78;5050720;28;20401;-55
2022/02/06 13:01:43;;;;;;;3.70;3.22;;;;;;;7.44;54.92;96554.16;5050977;28;20039;-53
2022/02/06 13:04:12;;;;;;;4.32;3.22;;;;;;;7.94;53.58;96543.00;5045001;28;20044;-52
2022/02/06 13:06:41;;;;;;;3.58;3.17;;;;;;;7.62;54.38;96543.38;5050774;28;20067;-52
2022/02/06 13:09:14;;;;;;;5.43;3.65;;;;;;;7.52;54.74;96542.34;5048568;28;20041;-51
2022/02/06 13:12:02;;;;;;;3.55;2.90;;;;;;;7.30;53.14;96549.00;5050493;28;20033;-52
2022/02/06 13:17:48;;;;;;;3.33;2.72;;;;;;;7.47;54.45;96578.50;5050857;28;20029;-53
2022/02/06 13:20:52;;;;;;;4.40;3.05;;;;;;;7.69;53.64;96591.00;5050710;28;20037;-52
2022/02/06 13:28:27;;;;;;;3.95;3.05;;;;;;;7.15;53.51;96611.91;5046625;28;20523;-53
2022/02/06 13:31:49;;;;;;;3.20;2.90;;;;;;;7.08;53.60;96608.00;5050405;28;20052;-54
2022/02/06 13:36:44;;;;;;;7.95;3.42;;;;;;;7.07;53.09;96587.13;5050732;28;20033;-51
2022/02/06 13:39:18;;;;;;;3.63;3.33;;;;;;;7.07;53.88;96585.38;5049820;28;20048;-53
2022/02/06 13:41:44;;;;;;;3.53;2.65;;;;;;;7.07;53.99;96581.91;5050426;28;20033;-53
2022/02/06 13:44:21;;;;;;;3.33;2.78;;;;;;;7.39;53.36;96585.06;5050819;28;20069;-51
2022/02/06 13:46:48;;;;;;;3.60;2.17;;;;;;;7.26;54.37;96578.94;5047818;28;20495;-54
2022/02/06 13:49:13;;;;;;;3.30;2.67;;;;;;;7.03;54.36;96560.31;5050508;28;20048;-51
2022/02/06 13:51:47;;;;;;;4.45;2.88;;;;;;;7.11;54.97;96555.41;5050140;28;20037;-53
2022/02/06 13:54:13;;;;;;;3.40;3.10;;;;;;;7.16;54.76;96558.56;5050013;28;20041;-51
2022/02/06 13:56:39;;;;;;;8.07;3.25;;;;;;;7.01;54.04;96570.06;5045192;28;20504;-53
2022/02/06 13:59:22;;;;;;;3.15;2.70;;;;;;;6.90;55.21;96577.75;5045780;28;20441;-52
2022/02/06 14:01:52;;;;;;;3.70;2.65;;;;;;;6.86;55.56;96587.59;5040316;28;20045;-52
2022/02/06 14:04:35;;;;;;;7.10;3.90;;;;;;;6.65;56.04;96600.22;5047110;28;20098;-54
2022/02/06 14:07:21;;;;;;;7.00;3.92;;;;;;;6.41;56.96;96592.94;5051697;28;20102;-52
2022/02/06 14:10:01;;;;;;;5.82;3.42;;;;;;;6.17;57.73;96590.91;5052171;28;20029;-52
2022/02/06 14:12:26;;;;;;;8.75;3.67;;;;;;;5.97;58.46;96592.91;5046569;28;20052;-52
2022/02/06 14:14:56;;;;;;;4.75;3.63;;;;;;;5.90;58.23;96588.97;5050893;28;20553;-52
2022/02/06 14:17:38;;;;;;;6.78;3.30;;;;;;;5.84;58.80;96591.94;5050895;28;20029;-53
2022/02/06 14:20:12;;;;;;;4.97;2.85;;;;;;;5.94;58.80;96582.63;5050684;28;20393;-48
2022/02/06 14:22:44;;;;;;;7.90;4.20;;;;;;;5.89;59.02;96576.84;5053206;28;20047;-51
2022/02/06 14:25:12;;;;;;;4.78;3.95;;;;;;;5.96;58.72;96570.31;5051752;28;20119;-53